CPX990 Details

Departure: Alice Springs Airport (YBAS)
Arrival: Kingsford Smith International Airport (YSSY)
Route: KALUG A576 PKS H319 TARAL Y59 RIVET
Notes: EMPTY | NON-REVENUE REPOSITIONING LEG


Current Weather Information
YBAS 221230Z AUTO 09003KT 9999 // NCD 27/01 Q1011 RF00.0/000.0
YSSY 221230Z 26007KT 9999 FEW032 SCT180 BKN200 21/18 Q1016 NOSIG